Threlkel, Kentucky
Current Conditions -  °F | °C
As of 7:53 AM on Wednesday 22 Oct 2014 (Local Time) from KBWG Reporting Station
Clear Clear  
Wind Chill: 42°   Ceiling: Unl
Heat Index: 44°   Visibility: 10mi
Dew Point: 40°   Wind: 5mph
Humidity: 85%   Direction: 60°ENE
Pressure: 30.27"   Gusts: NA
Location:  37.2302°N, 86.4364°W
Report Text: KBWG 221253Z AUTO 06004KT 10SM CLR 07/04 A3027 RMK AO2 SLP251 T00670044
Loading
Personal Weather Stations






























Interactive Weather Map
Tropical Storm Tracking
New forecast layout! Learn more

10-Day Weather Forecast

Advertisements
Track Severe Weather on mobile